Terminal Aerodrome Forecast
Issued by NWS Portland, OR

Home | Current Version | Previous Version | Text Only | Print | Product List | Glossary On
Versions: 1 2 3 4 5 6 7 8 9 10 11 12 13 14 15 16 17
000
FTUS46 KPQR 270524
TAFAST
TAF
KAST 270524Z 2706/2806 33010KT P6SM OVC010
     FM270900 31005KT P6SM OVC015
     FM272100 31012KT P6SM SCT020
     FM280200 31010KT P6SM BKN015=

USA.gov is the U.S. government's official web portal to all federal, state and local government web resources and services.